sensor_id;sensor_type;location;lat;lon;timestamp;temperature;humidity
5128;DHT22;2582;48.770;9.190;2023-04-01T00:00:16;10.40;99.90
5128;DHT22;2582;48.770;9.190;2023-04-01T00:02:42;10.40;99.90
5128;DHT22;2582;48.770;9.190;2023-04-01T00:05:09;10.40;99.90
5128;DHT22;2582;48.770;9.190;2023-04-01T00:07:36;10.40;99.90
5128;DHT22;2582;48.770;9.190;2023-04-01T00:10:03;10.40;99.90
5128;DHT22;2582;48.770;9.190;2023-04-01T00:12:28;10.30;99.90
5128;DHT22;2582;48.770;9.190;2023-04-01T00:14:55;10.30;99.90
5128;DHT22;2582;48.770;9.190;2023-04-01T00:17:20;10.40;99.90
5128;DHT22;2582;48.770;9.190;2023-04-01T00:19:46;10.40;99.90
5128;DHT22;2582;48.770;9.190;2023-04-01T00:22:12;10.40;99.90
5128;DHT22;2582;48.770;9.190;2023-04-01T00:24:38;10.50;99.90
5128;DHT22;2582;48.770;9.190;2023-04-01T00:27:04;10.50;99.90
5128;DHT22;2582;48.770;9.190;2023-04-01T00:29:30;10.40;99.90
5128;DHT22;2582;48.770;9.190;2023-04-01T00:31:57;10.40;99.90
5128;DHT22;2582;48.770;9.190;2023-04-01T00:34:23;10.40;99.90
5128;DHT22;2582;48.770;9.190;2023-04-01T00:36:52;10.40;99.90
5128;DHT22;2582;48.770;9.190;2023-04-01T00:39:19;10.40;99.90
5128;DHT22;2582;48.770;9.190;2023-04-01T00:41:44;10.50;99.90
5128;DHT22;2582;48.770;9.190;2023-04-01T00:44:21;10.40;99.90
5128;DHT22;2582;48.770;9.190;2023-04-01T00:46:48;10.50;99.90
5128;DHT22;2582;48.770;9.190;2023-04-01T00:49:14;10.50;99.90
5128;DHT22;2582;48.770;9.190;2023-04-01T00:51:42;10.50;99.90
5128;DHT22;2582;48.770;9.190;2023-04-01T00:54:08;10.50;99.90
5128;DHT22;2582;48.770;9.190;2023-04-01T00:56:41;10.40;99.90
5128;DHT22;2582;48.770;9.190;2023-04-01T00:59:30;10.30;99.90
5128;DHT22;2582;48.770;9.190;2023-04-01T01:01:57;10.30;99.90
5128;DHT22;2582;48.770;9.190;2023-04-01T01:10:03;10.50;99.90
5128;DHT22;2582;48.770;9.190;2023-04-01T01:21:13;10.60;99.90
5128;DHT22;2582;48.770;9.190;2023-04-01T01:24:07;10.50;99.90
5128;DHT22;2582;48.770;9.190;2023-04-01T01:26:52;10.50;99.90
5128;DHT22;2582;48.770;9.190;2023-04-01T01:32:08;10.50;99.90
5128;DHT22;2582;48.770;9.190;2023-04-01T01:37:10;10.50;99.90
5128;DHT22;2582;48.770;9.190;2023-04-01T01:39:36;10.50;99.90
5128;DHT22;2582;48.770;9.190;2023-04-01T01:42:09;10.50;99.90
5128;DHT22;2582;48.770;9.190;2023-04-01T01:44:37;10.50;99.90
5128;DHT22;2582;48.770;9.190;2023-04-01T01:47:03;10.30;99.90
5128;DHT22;2582;48.770;9.190;2023-04-01T01:49:32;10.30;99.90
5128;DHT22;2582;48.770;9.190;2023-04-01T01:51:58;10.30;99.90
5128;DHT22;2582;48.770;9.190;2023-04-01T01:54:25;10.40;99.90
5128;DHT22;2582;48.770;9.190;2023-04-01T01:56:55;10.40;99.90
5128;DHT22;2582;48.770;9.190;2023-04-01T01:59:26;10.40;99.90
5128;DHT22;2582;48.770;9.190;2023-04-01T02:01:55;10.20;99.90
5128;DHT22;2582;48.770;9.190;2023-04-01T02:04:22;10.40;99.90
5128;DHT22;2582;48.770;9.190;2023-04-01T02:06:57;10.50;99.90
5128;DHT22;2582;48.770;9.190;2023-04-01T02:09:25;10.70;99.90
5128;DHT22;2582;48.770;9.190;2023-04-01T02:11:56;10.70;99.90
5128;DHT22;2582;48.770;9.190;2023-04-01T02:14:25;10.60;99.90
5128;DHT22;2582;48.770;9.190;2023-04-01T02:16:58;10.50;99.90
5128;DHT22;2582;48.770;9.190;2023-04-01T02:19:29;10.40;99.90
5128;DHT22;2582;48.770;9.190;2023-04-01T02:21:59;10.40;99.90
5128;DHT22;2582;48.770;9.190;2023-04-01T02:24:28;10.40;99.90
5128;DHT22;2582;48.770;9.190;2023-04-01T02:26:55;10.50;99.90
5128;DHT22;2582;48.770;9.190;2023-04-01T02:29:23;10.60;99.90
5128;DHT22;2582;48.770;9.190;2023-04-01T02:31:51;10.50;99.90
5128;DHT22;2582;48.770;9.190;2023-04-01T02:34:18;10.20;99.90
5128;DHT22;2582;48.770;9.190;2023-04-01T02:36:44;10.30;99.90
5128;DHT22;2582;48.770;9.190;2023-04-01T02:39:09;10.40;99.90
5128;DHT22;2582;48.770;9.190;2023-04-01T02:41:43;10.50;99.90
5128;DHT22;2582;48.770;9.190;2023-04-01T02:44:10;10.30;99.90
5128;DHT22;2582;48.770;9.190;2023-04-01T02:46:36;10.30;99.90
5128;DHT22;2582;48.770;9.190;2023-04-01T02:49:02;10.10;99.90
5128;DHT22;2582;48.770;9.190;2023-04-01T02:51:28;10.20;99.90
5128;DHT22;2582;48.770;9.190;2023-04-01T02:53:54;10.20;99.90
5128;DHT22;2582;48.770;9.190;2023-04-01T02:56:19;10.20;99.90
5128;DHT22;2582;48.770;9.190;2023-04-01T02:58:46;10.20;99.90
5128;DHT22;2582;48.770;9.190;2023-04-01T03:01:11;10.10;99.90
5128;DHT22;2582;48.770;9.190;2023-04-01T03:03:37;10.20;99.90
5128;DHT22;2582;48.770;9.190;2023-04-01T03:06:11;10.10;99.90
5128;DHT22;2582;48.770;9.190;2023-04-01T03:08:37;10.00;99.90
5128;DHT22;2582;48.770;9.190;2023-04-01T03:11:03;10.10;99.90
5128;DHT22;2582;48.770;9.190;2023-04-01T03:13:29;10.10;99.90
5128;DHT22;2582;48.770;9.190;2023-04-01T03:15:55;9.90;99.90
5128;DHT22;2582;48.770;9.190;2023-04-01T03:18:20;10.00;99.90
5128;DHT22;2582;48.770;9.190;2023-04-01T03:20:46;10.10;99.90
5128;DHT22;2582;48.770;9.190;2023-04-01T03:23:12;10.10;99.90
5128;DHT22;2582;48.770;9.190;2023-04-01T03:25:38;9.90;99.90
5128;DHT22;2582;48.770;9.190;2023-04-01T03:28:04;9.80;99.90
5128;DHT22;2582;48.770;9.190;2023-04-01T03:30:30;9.80;99.90
5128;DHT22;2582;48.770;9.190;2023-04-01T03:32:57;9.80;99.90
5128;DHT22;2582;48.770;9.190;2023-04-01T03:35:23;9.80;99.90
5128;DHT22;2582;48.770;9.190;2023-04-01T03:37:51;10.00;99.90
5128;DHT22;2582;48.770;9.190;2023-04-01T03:40:16;9.90;99.90
5128;DHT22;2582;48.770;9.190;2023-04-01T03:42:42;9.80;99.90
5128;DHT22;2582;48.770;9.190;2023-04-01T03:45:08;9.90;99.90
5128;DHT22;2582;48.770;9.190;2023-04-01T03:47:34;9.90;99.90
5128;DHT22;2582;48.770;9.190;2023-04-01T03:50:00;9.90;99.90
5128;DHT22;2582;48.770;9.190;2023-04-01T03:52:26;9.90;99.90
5128;DHT22;2582;48.770;9.190;2023-04-01T03:54:51;9.80;99.90
5128;DHT22;2582;48.770;9.190;2023-04-01T03:57:17;9.90;99.90
5128;DHT22;2582;48.770;9.190;2023-04-01T03:59:42;10.00;99.90
5128;DHT22;2582;48.770;9.190;2023-04-01T04:02:08;10.00;99.90
5128;DHT22;2582;48.770;9.190;2023-04-01T04:04:33;9.90;99.90
5128;DHT22;2582;48.770;9.190;2023-04-01T04:06:59;9.80;99.90
5128;DHT22;2582;48.770;9.190;2023-04-01T04:09:25;9.70;99.90
5128;DHT22;2582;48.770;9.190;2023-04-01T04:11:50;9.80;99.90
5128;DHT22;2582;48.770;9.190;2023-04-01T04:14:16;9.80;99.90
5128;DHT22;2582;48.770;9.190;2023-04-01T04:16:42;9.80;99.90
5128;DHT22;2582;48.770;9.190;2023-04-01T04:19:07;9.70;99.90
5128;DHT22;2582;48.770;9.190;2023-04-01T04:21:33;9.70;99.90
5128;DHT22;2582;48.770;9.190;2023-04-01T04:24:00;9.80;99.90
5128;DHT22;2582;48.770;9.190;2023-04-01T04:26:25;9.80;99.90
5128;DHT22;2582;48.770;9.190;2023-04-01T04:28:51;9.80;99.90
5128;DHT22;2582;48.770;9.190;2023-04-01T04:31:24;9.80;99.90
5128;DHT22;2582;48.770;9.190;2023-04-01T04:33:50;9.60;99.90
5128;DHT22;2582;48.770;9.190;2023-04-01T04:36:17;9.50;99.90
5128;DHT22;2582;48.770;9.190;2023-04-01T04:38:42;9.40;99.90
5128;DHT22;2582;48.770;9.190;2023-04-01T04:41:12;9.40;99.90
5128;DHT22;2582;48.770;9.190;2023-04-01T04:43:40;9.50;99.90
5128;DHT22;2582;48.770;9.190;2023-04-01T04:46:07;9.40;99.90
5128;DHT22;2582;48.770;9.190;2023-04-01T04:48:33;9.30;99.90
5128;DHT22;2582;48.770;9.190;2023-04-01T04:50:59;9.30;99.90
5128;DHT22;2582;48.770;9.190;2023-04-01T04:53:24;9.30;99.90
5128;DHT22;2582;48.770;9.190;2023-04-01T04:55:51;9.40;99.90
5128;DHT22;2582;48.770;9.190;2023-04-01T04:58:17;9.40;99.90
5128;DHT22;2582;48.770;9.190;2023-04-01T05:00:43;9.40;99.90
5128;DHT22;2582;48.770;9.190;2023-04-01T05:03:09;9.40;99.90
5128;DHT22;2582;48.770;9.190;2023-04-01T05:05:35;9.50;99.90
5128;DHT22;2582;48.770;9.190;2023-04-01T05:08:02;9.50;99.90
5128;DHT22;2582;48.770;9.190;2023-04-01T05:10:27;9.40;99.90
5128;DHT22;2582;48.770;9.190;2023-04-01T05:12:53;9.40;99.90
5128;DHT22;2582;48.770;9.190;2023-04-01T05:15:19;9.50;99.90
5128;DHT22;2582;48.770;9.190;2023-04-01T05:17:45;9.40;99.90
5128;DHT22;2582;48.770;9.190;2023-04-01T05:20:12;9.40;99.90
5128;DHT22;2582;48.770;9.190;2023-04-01T05:22:38;9.50;99.90
5128;DHT22;2582;48.770;9.190;2023-04-01T05:25:03;9.50;99.90
5128;DHT22;2582;48.770;9.190;2023-04-01T05:27:29;9.50;99.90
5128;DHT22;2582;48.770;9.190;2023-04-01T05:29:55;9.50;99.90
5128;DHT22;2582;48.770;9.190;2023-04-01T05:32:21;9.60;99.90
5128;DHT22;2582;48.770;9.190;2023-04-01T05:34:46;9.60;99.90
5128;DHT22;2582;48.770;9.190;2023-04-01T05:37:15;9.60;99.90
5128;DHT22;2582;48.770;9.190;2023-04-01T05:39:40;9.60;99.90
5128;DHT22;2582;48.770;9.190;2023-04-01T05:42:07;9.70;99.90
5128;DHT22;2582;48.770;9.190;2023-04-01T05:44:34;9.80;99.90
5128;DHT22;2582;48.770;9.190;2023-04-01T05:47:00;9.90;99.90
5128;DHT22;2582;48.770;9.190;2023-04-01T05:49:26;10.00;99.90
5128;DHT22;2582;48.770;9.190;2023-04-01T05:51:51;10.00;99.90
5128;DHT22;2582;48.770;9.190;2023-04-01T05:54:18;10.00;99.90
5128;DHT22;2582;48.770;9.190;2023-04-01T05:56:44;10.00;99.90
5128;DHT22;2582;48.770;9.190;2023-04-01T05:59:10;10.10;99.90
5128;DHT22;2582;48.770;9.190;2023-04-01T06:01:37;10.10;99.90
5128;DHT22;2582;48.770;9.190;2023-04-01T06:04:02;10.10;99.90
5128;DHT22;2582;48.770;9.190;2023-04-01T06:06:29;10.20;99.90
5128;DHT22;2582;48.770;9.190;2023-04-01T06:09:06;10.20;99.90
5128;DHT22;2582;48.770;9.190;2023-04-01T06:23:21;10.40;99.90
5128;DHT22;2582;48.770;9.190;2023-04-01T06:37:41;10.80;99.90
5128;DHT22;2582;48.770;9.190;2023-04-01T06:40:31;10.70;99.90
5128;DHT22;2582;48.770;9.190;2023-04-01T06:46:02;10.80;99.90
5128;DHT22;2582;48.770;9.190;2023-04-01T06:51:47;11.10;99.90
5128;DHT22;2582;48.770;9.190;2023-04-01T06:54:29;11.20;99.90
5128;DHT22;2582;48.770;9.190;2023-04-01T06:57:04;11.30;99.90
5128;DHT22;2582;48.770;9.190;2023-04-01T06:59:33;11.10;99.90
5128;DHT22;2582;48.770;9.190;2023-04-01T07:02:09;11.00;99.90
5128;DHT22;2582;48.770;9.190;2023-04-01T07:04:44;10.90;99.90
5128;DHT22;2582;48.770;9.190;2023-04-01T07:07:25;10.90;99.90
5128;DHT22;2582;48.770;9.190;2023-04-01T07:09:56;10.80;99.90
5128;DHT22;2582;48.770;9.190;2023-04-01T07:14:54;11.00;99.90
5128;DHT22;2582;48.770;9.190;2023-04-01T07:17:22;11.00;99.90
5128;DHT22;2582;48.770;9.190;2023-04-01T07:19:58;11.00;99.90
5128;DHT22;2582;48.770;9.190;2023-04-01T07:22:33;11.20;99.90
5128;DHT22;2582;48.770;9.190;2023-04-01T07:25:20;11.00;99.90
5128;DHT22;2582;48.770;9.190;2023-04-01T07:27:46;11.30;99.90
5128;DHT22;2582;48.770;9.190;2023-04-01T07:30:18;11.10;99.90
5128;DHT22;2582;48.770;9.190;2023-04-01T07:32:59;11.10;99.90
5128;DHT22;2582;48.770;9.190;2023-04-01T07:46:53;11.40;99.90
5128;DHT22;2582;48.770;9.190;2023-04-01T07:49:53;11.50;99.90
5128;DHT22;2582;48.770;9.190;2023-04-01T07:54:56;11.40;99.90
5128;DHT22;2582;48.770;9.190;2023-04-01T07:57:48;11.30;99.90
5128;DHT22;2582;48.770;9.190;2023-04-01T08:03:21;11.60;99.90
5128;DHT22;2582;48.770;9.190;2023-04-01T08:05:52;11.70;99.90
5128;DHT22;2582;48.770;9.190;2023-04-01T08:08:43;11.80;99.90
5128;DHT22;2582;48.770;9.190;2023-04-01T08:12:04;11.70;99.90
5128;DHT22;2582;48.770;9.190;2023-04-01T08:14:40;11.70;99.90
5128;DHT22;2582;48.770;9.190;2023-04-01T08:20:18;11.90;99.90
5128;DHT22;2582;48.770;9.190;2023-04-01T08:22:52;11.80;99.90
5128;DHT22;2582;48.770;9.190;2023-04-01T08:25:27;11.70;99.90
5128;DHT22;2582;48.770;9.190;2023-04-01T08:28:00;11.70;99.90
5128;DHT22;2582;48.770;9.190;2023-04-01T08:30:43;11.90;99.90
5128;DHT22;2582;48.770;9.190;2023-04-01T08:33:15;11.90;99.90
5128;DHT22;2582;48.770;9.190;2023-04-01T08:35:51;12.00;99.90
5128;DHT22;2582;48.770;9.190;2023-04-01T08:38:37;11.80;99.90
5128;DHT22;2582;48.770;9.190;2023-04-01T08:41:59;11.60;99.90
5128;DHT22;2582;48.770;9.190;2023-04-01T08:55:01;11.30;99.90
5128;DHT22;2582;48.770;9.190;2023-04-01T09:00:32;11.00;99.90
5128;DHT22;2582;48.770;9.190;2023-04-01T09:17:50;11.30;99.90
5128;DHT22;2582;48.770;9.190;2023-04-01T09:20:52;11.30;99.90
5128;DHT22;2582;48.770;9.190;2023-04-01T09:35:30;12.00;99.90
5128;DHT22;2582;48.770;9.190;2023-04-01T09:38:20;12.00;99.90
5128;DHT22;2582;48.770;9.190;2023-04-01T09:57:25;12.10;99.90
5128;DHT22;2582;48.770;9.190;2023-04-01T10:03:13;12.00;99.90
5128;DHT22;2582;48.770;9.190;2023-04-01T10:11:51;12.10;99.90
5128;DHT22;2582;48.770;9.190;2023-04-01T10:14:25;11.80;99.90
5128;DHT22;2582;48.770;9.190;2023-04-01T10:25:53;12.30;99.90
5128;DHT22;2582;48.770;9.190;2023-04-01T10:48:30;13.30;99.90
5128;DHT22;2582;48.770;9.190;2023-04-01T10:54:22;13.20;99.90
5128;DHT22;2582;48.770;9.190;2023-04-01T10:57:36;13.20;99.90
5128;DHT22;2582;48.770;9.190;2023-04-01T11:03:27;12.90;99.90
5128;DHT22;2582;48.770;9.190;2023-04-01T11:11:57;12.80;99.90
5128;DHT22;2582;48.770;9.190;2023-04-01T11:26:06;14.50;99.90
5128;DHT22;2582;48.770;9.190;2023-04-01T11:29:03;14.80;99.90
5128;DHT22;2582;48.770;9.190;2023-04-01T11:31:37;14.70;99.90
5128;DHT22;2582;48.770;9.190;2023-04-01T11:37:21;14.60;99.90
5128;DHT22;2582;48.770;9.190;2023-04-01T11:42:42;15.20;99.90
5128;DHT22;2582;48.770;9.190;2023-04-01T11:45:21;15.40;99.90
5128;DHT22;2582;48.770;9.190;2023-04-01T11:53:54;14.70;99.90
5128;DHT22;2582;48.770;9.190;2023-04-01T11:56:53;14.60;99.90
5128;DHT22;2582;48.770;9.190;2023-04-01T12:04:58;13.80;99.90
5128;DHT22;2582;48.770;9.190;2023-04-01T12:07:50;13.20;99.90
5128;DHT22;2582;48.770;9.190;2023-04-01T12:10:24;13.30;99.90
5128;DHT22;2582;48.770;9.190;2023-04-01T12:29:21;13.40;99.90
5128;DHT22;2582;48.770;9.190;2023-04-01T12:35:02;13.20;99.90
5128;DHT22;2582;48.770;9.190;2023-04-01T12:45:33;13.80;99.90
5128;DHT22;2582;48.770;9.190;2023-04-01T12:56:52;14.70;99.90
5128;DHT22;2582;48.770;9.190;2023-04-01T13:16:42;14.40;99.90
5128;DHT22;2582;48.770;9.190;2023-04-01T13:22:20;13.70;99.90
5128;DHT22;2582;48.770;9.190;2023-04-01T13:27:58;13.50;99.90
5128;DHT22;2582;48.770;9.190;2023-04-01T13:30:33;13.30;99.90
5128;DHT22;2582;48.770;9.190;2023-04-01T13:33:13;13.60;99.90
5128;DHT22;2582;48.770;9.190;2023-04-01T13:44:13;13.90;99.90
5128;DHT22;2582;48.770;9.190;2023-04-01T14:06:05;14.30;99.90
5128;DHT22;2582;48.770;9.190;2023-04-01T14:11:40;14.20;99.90
5128;DHT22;2582;48.770;9.190;2023-04-01T14:14:19;14.10;99.90
5128;DHT22;2582;48.770;9.190;2023-04-01T14:17:06;14.30;99.90
5128;DHT22;2582;48.770;9.190;2023-04-01T14:31:04;13.30;99.90
5128;DHT22;2582;48.770;9.190;2023-04-01T14:33:57;13.40;99.90
5128;DHT22;2582;48.770;9.190;2023-04-01T14:36:43;13.10;99.90
5128;DHT22;2582;48.770;9.190;2023-04-01T14:42:31;13.00;99.90
5128;DHT22;2582;48.770;9.190;2023-04-01T14:45:44;12.90;99.90
5128;DHT22;2582;48.770;9.190;2023-04-01T14:48:07;13.00;99.90
5128;DHT22;2582;48.770;9.190;2023-04-01T14:50:45;13.10;99.90
5128;DHT22;2582;48.770;9.190;2023-04-01T14:53:33;13.20;99.90
5128;DHT22;2582;48.770;9.190;2023-04-01T14:56:02;13.40;99.90
5128;DHT22;2582;48.770;9.190;2023-04-01T14:58:47;13.40;99.90
5128;DHT22;2582;48.770;9.190;2023-04-01T15:01:53;13.50;99.90
5128;DHT22;2582;48.770;9.190;2023-04-01T15:04:51;13.50;99.90
5128;DHT22;2582;48.770;9.190;2023-04-01T15:19:07;13.40;99.90
5128;DHT22;2582;48.770;9.190;2023-04-01T15:24:26;13.40;99.90
5128;DHT22;2582;48.770;9.190;2023-04-01T15:27:17;13.10;99.90
5128;DHT22;2582;48.770;9.190;2023-04-01T15:30:06;13.20;99.90
5128;DHT22;2582;48.770;9.190;2023-04-01T15:32:55;13.30;99.90
5128;DHT22;2582;48.770;9.190;2023-04-01T15:43:45;12.90;99.90
5128;DHT22;2582;48.770;9.190;2023-04-01T15:49:19;13.10;99.90
5128;DHT22;2582;48.770;9.190;2023-04-01T15:52:10;13.10;99.90
5128;DHT22;2582;48.770;9.190;2023-04-01T16:00:31;12.80;99.90
5128;DHT22;2582;48.770;9.190;2023-04-01T16:06:13;12.90;99.90
5128;DHT22;2582;48.770;9.190;2023-04-01T16:11:42;12.40;99.90
5128;DHT22;2582;48.770;9.190;2023-04-01T16:17:36;12.50;99.90
5128;DHT22;2582;48.770;9.190;2023-04-01T16:20:24;12.60;99.90
5128;DHT22;2582;48.770;9.190;2023-04-01T16:23:02;12.80;99.90
5128;DHT22;2582;48.770;9.190;2023-04-01T16:28:44;12.70;99.90
5128;DHT22;2582;48.770;9.190;2023-04-01T16:34:30;12.50;99.90
5128;DHT22;2582;48.770;9.190;2023-04-01T16:37:27;12.60;99.90
5128;DHT22;2582;48.770;9.190;2023-04-01T16:40:44;12.50;99.90
5128;DHT22;2582;48.770;9.190;2023-04-01T16:43:21;12.40;99.90
5128;DHT22;2582;48.770;9.190;2023-04-01T16:46:08;12.50;99.90
5128;DHT22;2582;48.770;9.190;2023-04-01T16:48:54;12.70;99.90
5128;DHT22;2582;48.770;9.190;2023-04-01T16:51:23;12.80;99.90
5128;DHT22;2582;48.770;9.190;2023-04-01T16:54:11;12.90;99.90
5128;DHT22;2582;48.770;9.190;2023-04-01T16:57:12;12.80;99.90
5128;DHT22;2582;48.770;9.190;2023-04-01T17:00:19;12.80;99.90
5128;DHT22;2582;48.770;9.190;2023-04-01T17:03:11;12.80;99.90
5128;DHT22;2582;48.770;9.190;2023-04-01T17:15:03;12.60;99.90
5128;DHT22;2582;48.770;9.190;2023-04-01T17:17:42;12.90;99.90
5128;DHT22;2582;48.770;9.190;2023-04-01T17:31:36;12.70;99.90
5128;DHT22;2582;48.770;9.190;2023-04-01T17:39:35;12.60;99.90
5128;DHT22;2582;48.770;9.190;2023-04-01T17:42:30;12.60;99.90
5128;DHT22;2582;48.770;9.190;2023-04-01T17:50:23;12.60;99.90
5128;DHT22;2582;48.770;9.190;2023-04-01T17:53:03;12.70;99.90
5128;DHT22;2582;48.770;9.190;2023-04-01T17:55:55;12.80;99.90
5128;DHT22;2582;48.770;9.190;2023-04-01T17:58:46;12.90;99.90
5128;DHT22;2582;48.770;9.190;2023-04-01T18:01:40;12.80;99.90
5128;DHT22;2582;48.770;9.190;2023-04-01T18:04:29;12.60;99.90
5128;DHT22;2582;48.770;9.190;2023-04-01T18:07:53;12.60;99.90
5128;DHT22;2582;48.770;9.190;2023-04-01T18:22:15;12.90;99.90
5128;DHT22;2582;48.770;9.190;2023-04-01T18:27:43;12.20;99.90
5128;DHT22;2582;48.770;9.190;2023-04-01T18:30:31;12.10;99.90
5128;DHT22;2582;48.770;9.190;2023-04-01T18:35:59;12.10;99.90
5128;DHT22;2582;48.770;9.190;2023-04-01T18:38:34;12.20;99.90
5128;DHT22;2582;48.770;9.190;2023-04-01T18:41:10;12.10;99.90
5128;DHT22;2582;48.770;9.190;2023-04-01T18:43:51;12.10;99.90
5128;DHT22;2582;48.770;9.190;2023-04-01T18:49:25;11.70;99.90
5128;DHT22;2582;48.770;9.190;2023-04-01T18:57:13;11.30;99.90
5128;DHT22;2582;48.770;9.190;2023-04-01T18:59:53;11.50;99.90
5128;DHT22;2582;48.770;9.190;2023-04-01T19:05:01;11.00;99.90
5128;DHT22;2582;48.770;9.190;2023-04-01T19:07:42;11.00;99.90
5128;DHT22;2582;48.770;9.190;2023-04-01T19:10:24;10.80;99.90
5128;DHT22;2582;48.770;9.190;2023-04-01T19:13:29;10.90;99.90
5128;DHT22;2582;48.770;9.190;2023-04-01T19:18:42;10.60;99.90
5128;DHT22;2582;48.770;9.190;2023-04-01T19:21:19;10.60;99.90
5128;DHT22;2582;48.770;9.190;2023-04-01T19:33:03;10.70;99.90
5128;DHT22;2582;48.770;9.190;2023-04-01T19:38:37;10.70;99.90
5128;DHT22;2582;48.770;9.190;2023-04-01T19:47:24;11.00;99.90
5128;DHT22;2582;48.770;9.190;2023-04-01T19:50:19;11.00;99.90
5128;DHT22;2582;48.770;9.190;2023-04-01T19:52:47;10.90;99.90
5128;DHT22;2582;48.770;9.190;2023-04-01T20:00:39;11.00;99.90
5128;DHT22;2582;48.770;9.190;2023-04-01T20:06:12;11.10;99.90
5128;DHT22;2582;48.770;9.190;2023-04-01T20:09:04;11.00;99.90
5128;DHT22;2582;48.770;9.190;2023-04-01T20:11:48;11.20;99.90
5128;DHT22;2582;48.770;9.190;2023-04-01T20:17:22;11.40;99.90
5128;DHT22;2582;48.770;9.190;2023-04-01T20:20:01;11.50;99.90
5128;DHT22;2582;48.770;9.190;2023-04-01T20:22:37;11.40;99.90
5128;DHT22;2582;48.770;9.190;2023-04-01T20:25:17;11.40;99.90
5128;DHT22;2582;48.770;9.190;2023-04-01T20:27:51;11.30;99.90
5128;DHT22;2582;48.770;9.190;2023-04-01T20:36:00;11.10;99.90
5128;DHT22;2582;48.770;9.190;2023-04-01T20:41:59;11.40;99.90
5128;DHT22;2582;48.770;9.190;2023-04-01T20:44:39;11.40;99.90
5128;DHT22;2582;48.770;9.190;2023-04-01T20:50:37;11.30;99.90
5128;DHT22;2582;48.770;9.190;2023-04-01T21:07:46;11.30;99.90
5128;DHT22;2582;48.770;9.190;2023-04-01T21:13:21;11.30;99.90
5128;DHT22;2582;48.770;9.190;2023-04-01T21:26:49;11.20;99.90
5128;DHT22;2582;48.770;9.190;2023-04-01T21:29:29;11.10;99.90
5128;DHT22;2582;48.770;9.190;2023-04-01T21:38:04;11.00;99.90
5128;DHT22;2582;48.770;9.190;2023-04-01T21:52:10;11.00;99.90
5128;DHT22;2582;48.770;9.190;2023-04-01T22:00:48;10.90;99.90
5128;DHT22;2582;48.770;9.190;2023-04-01T22:17:03;10.80;99.90
5128;DHT22;2582;48.770;9.190;2023-04-01T22:22:26;10.80;99.90
5128;DHT22;2582;48.770;9.190;2023-04-01T22:25:14;10.80;99.90
5128;DHT22;2582;48.770;9.190;2023-04-01T22:30:36;10.80;99.90
5128;DHT22;2582;48.770;9.190;2023-04-01T22:33:28;10.70;99.90
5128;DHT22;2582;48.770;9.190;2023-04-01T22:44:26;10.80;99.90
5128;DHT22;2582;48.770;9.190;2023-04-01T22:47:12;10.90;99.90
5128;DHT22;2582;48.770;9.190;2023-04-01T22:49:57;10.90;99.90
5128;DHT22;2582;48.770;9.190;2023-04-01T22:55:03;10.90;99.90
5128;DHT22;2582;48.770;9.190;2023-04-01T22:57:49;10.90;99.90
5128;DHT22;2582;48.770;9.190;2023-04-01T23:03:27;10.90;99.90
5128;DHT22;2582;48.770;9.190;2023-04-01T23:05:56;10.60;99.90
5128;DHT22;2582;48.770;9.190;2023-04-01T23:11:31;10.90;99.90
5128;DHT22;2582;48.770;9.190;2023-04-01T23:16:39;10.50;99.90
5128;DHT22;2582;48.770;9.190;2023-04-01T23:19:30;10.60;99.90
5128;DHT22;2582;48.770;9.190;2023-04-01T23:22:31;10.60;99.90
5128;DHT22;2582;48.770;9.190;2023-04-01T23:29:46;10.80;99.90
5128;DHT22;2582;48.770;9.190;2023-04-01T23:32:19;10.90;99.90
5128;DHT22;2582;48.770;9.190;2023-04-01T23:34:52;10.80;99.90
5128;DHT22;2582;48.770;9.190;2023-04-01T23:37:20;10.90;99.90
5128;DHT22;2582;48.770;9.190;2023-04-01T23:39:53;10.80;99.90
5128;DHT22;2582;48.770;9.190;2023-04-01T23:42:30;10.70;99.90
5128;DHT22;2582;48.770;9.190;2023-04-01T23:45:03;10.70;99.90
5128;DHT22;2582;48.770;9.190;2023-04-01T23:47:35;10.70;99.90
5128;DHT22;2582;48.770;9.190;2023-04-01T23:50:14;10.70;99.90
5128;DHT22;2582;48.770;9.190;2023-04-01T23:53:16;10.60;99.90
5128;DHT22;2582;48.770;9.190;2023-04-01T23:55:42;10.50;99.90
